Logo AVAMET
Benvolgut visitant, si us plau, ingressa Recuperar contrasenya
AVAMET paisatges
Union Alcoyana

Xiva Calicanto

Dades diàries. Acumulats / Últims 30 dies disponibles

Data Temperatura (°C) Humitat rel. (%) Pressió rel. (hPa) Vent (km/h) Precipitació
Mínima Mitjana Màxima Amplitud
tèrmica
Mínima Mitjana Màxima Mínima Mitjana Màxima Predom. Mitjana Ràfega
màxima
Total
(mm)
Índex-n
Mínima Mitjana Màxima Mínima Mitjana Màxima n
0 a 1
P0 max
mm 5'
Dades mensuals acumulades fins l'últim dia disponible
05/2021 12,2 13,8 16,3 17,7 15,3 22,9 28,7 16,5 32 70 94 1.004 1.014 1.022   3,1 49,9 15,2
Dades anuals acumulades fins l'últim dia disponible
2021 1,7 9,8 16,3 12,9 4,9 17,3 28,7 27,0 18 71 97 1.000 1.017 1.036   5,3 80,5 177,4
Últims 30 dies disponibles
10-05-2021 14,7     19,4     23,1 8,4 34 52 84 1.007 1.008 1.010 OSO 7,9 49,9 0,0
09-05-2021 14,0     17,3     22,8 8,8 66 86 94 1.004 1.008 1.013 ESE 1,9 19,3 14,8 0,47 3,20
08-05-2021 16,3     18,9     23,9 7,6 58 77 90 1.012 1.016 1.018 E 1,4 17,7 0,0
07-05-2021 16,2     22,5     28,7 12,5 34 52 89 1.013 1.015 1.017 SSE 3,9 29,0 0,0
06-05-2021 12,8     19,3     26,7 13,9 50 68 87 1.011 1.014 1.016 E 0,9 19,3 0,0
05-05-2021 12,2     18,3     24,6 12,4 43 66 89 1.013 1.015 1.016 ESE 2,4 17,7 0,0
04-05-2021 12,7     16,3     22,7 10,0 55 75 89 1.014 1.017 1.021 ESE 1,5 19,3 0,0
03-05-2021 12,3     13,5     15,3 3,0 75 82 89 1.019 1.021 1.022 NNE 2,0 24,1 0,4
02-05-2021 12,5     14,8     18,4 5,9 47 73 87 1.015 1.017 1.020 NE 2,6 22,5 0,0
01-05-2021 14,0     16,6     23,1 9,1 32 68 91 1.006 1.009 1.015 SSE 6,0 30,6 0,0
30-04-2021 14,3     17,5     21,3 7,0 54 71 90 1.006 1.007 1.008 SSE 3,7 19,3 1,3 0,51 0,50
29-04-2021 13,8     18,9     24,8 11,0 36 66 96 1.005 1.006 1.007 OSO 6,5 27,4 0,2
28-04-2021 12,8     16,1     23,2 10,4 54 88 96 1.004 1.006 1.008 ENE 2,0 19,3 0,4
27-04-2021 12,4     15,1     20,4 8,0 71 89 97 1.004 1.005 1.007 ENE 2,1 17,7 7,0 0,19 0,60
26-04-2021 12,8     14,0     17,9 5,1 83 93 97 1.004 1.007 1.012 ESE 2,9 37,0 13,7 0,41 0,60
25-04-2021 11,7     14,5     17,9 6,2 66 83 94 1.009 1.013 1.018 E 5,9 27,4 6,1
24-04-2021 11,9     13,1     14,6 2,7 82 87 93 1.017 1.019 1.021 NE 2,8 16,1 0,9
23-04-2021 10,9     14,0     18,3 7,4 59 82 97 1.019 1.020 1.021 NE 2,4 16,1 0,0
22-04-2021 11,9     12,9     14,9 3,0 86 95 97 1.013 1.015 1.019 NE 3,6 24,1 10,9 0,23 0,50
21-04-2021 12,5     13,8     18,3 5,8 72 89 96 1.011 1.012 1.015 NE 2,1 19,3 7,6 0,21 0,80
20-04-2021 12,2     14,4     19,4 7,2 58 75 92 1.011 1.013 1.015 E 1,8 17,7 2,0
19-04-2021 9,5     15,9     24,8 15,3 24 52 77 1.013 1.016 1.021 S 5,8 35,4 0,0
18-04-2021 7,4     12,0     18,1 10,7 38 56 77 1.018 1.019 1.021 SSO 4,2 19,3 0,0
17-04-2021 6,9     11,0     16,3 9,4 40 63 87 1.016 1.017 1.019 S 3,5 22,5 0,2
16-04-2021 7,8     11,4     16,7 8,9 47 78 92 1.015 1.017 1.019 SE 3,9 22,5 4,8 0,29 0,90
15-04-2021 9,9     11,5     12,8 2,9 83 90 96 1.016 1.017 1.019 NE 3,6 20,9 2,6 0,42 0,40
14-04-2021 11,6     12,8     15,6 4,0 73 85 90 1.017 1.019 1.022 ENE 1,5 14,5 0,2
13-04-2021 11,1     13,1     16,1 5,0 69 80 87 1.021 1.023 1.025 S 2,3 12,9 0,0
12-04-2021 11,1     13,5     16,6 5,5 51 70 91 1.019 1.022 1.025 S 3,5 24,1 0,0
11-04-2021 10,4     15,4     23,4 13,0 43 77 96 1.011 1.013 1.018 SO 5,0 33,8 0,2
Últims 13 mesos disponibles
04/2021 6,9 10,9 14,3 13,9 11,7 18,5 26,8 19,9 52 76 95 1.005 1.015 1.024 NE 3,0 37,0 63,9
03/2021 5,0 9,1 12,4 12,5 11,3 17,1 24,0 19,0 47 72 94 1.013 1.022 1.030 SO 3,2 43,5 48,5
02/2021 5,6 10,5 15,0 13,1 13,6 17,2 21,8 16,2 53 74 91 1.002 1.018 1.034 O 6,3 72,4 21,3
01/2021 1,7 7,5 16,3 10,6 4,9 14,5 24,0 22,3 40 63 92 1.006 1.016 1.027 OSO 9,6 80,5 28,5
12/2020 4,6 8,8 15,8 12,0 11,8 16,0 21,1 16,5 41 62 81 997 1.014 1.027 OSO 9,6 64,4 6,9
11/2020 6,6 12,2 16,7 15,2 15,6 19,6 26,7 20,1 65 79 95 1.006 1.021 1.028 SSO 3,7 45,1 159,2
10/2020 10,8 14,5 18,7 18,4 19,5 23,7 31,1 20,3 40 60 87 997 1.016 1.025 OSO 6,9 97,8 6,3
09/2020 14,8 19,1 22,1 23,0 23,8 28,3 31,3 16,5 37 63 85 1.010 1.016 1.022 S 5,2 59,5 12,1
08/2020 17,2 22,4 24,7 26,6 26,2 31,9 34,8 17,6 37 67 79 1.003 1.012 1.017 ESE 3,6 30,6 0,9
07/2020 19,0 21,9 24,6 25,9 27,2 31,0 35,4 16,4 48 70 84 1.010 1.015 1.019 SE 3,6 48,3 11,5
06/2020 14,8 18,6 21,5 23,0 21,8 28,6 33,2 18,4 38 66 84 1.003 1.013 1.020 SE 4,8 53,1 35,3
05/2020 12,2 16,5 19,7 20,9 18,4 25,9 32,2 20,0 49 64 82 1.004 1.016 1.026 E 4,8 46,7 19,0
04/2020 8,1 12,2 16,8 15,4 14,6 20,1 25,1 17,0 46 76 94 1.005 1.015 1.025 SE 4,4 46,7 43,8
Tots els anys disponibles
2020 3,4 14,6 24,7 18,3 8,4 23,2 35,4 32,0 36 68 95 997 1.017 1.032 SE 5,5 97,8 493,0
2019 3,2 14,4 26,1 18,2 11,4 23,1 40,6 37,4 32 63 95 994 1.016 1.033 ESE 5,8 78,9 365,1
2018 0,9 14,6 27,1 18,1 7,6 22,8 37,3 36,4 35 66 96 991 1.015 1.032 OSO 5,4 74,0 584,1
Temperatura (°C)
Humitat relativa (%)
Velocitat del vent i ràfega màxima (km/h)
Direcció del vent (°)
Pressió (hPa)
Precipitació (mm)
Nota sobre les dades: s'avisa a l'usuari de la provisionalitat i no oficialitat d'aquestes dades
Logo AVAMET blanc
Web allotjada a Sollutia
Llicència de Creative CommonsLa web d'AVAMET i els seus continguts estan subjectes a una llicència de
Reconeixement - No Comercial - Compartir igual
Avís legal - Política de privacitat - Política de cookies
NOVES ESTACIONS: Gaibiel (Ajuntament/Soci), Almenara - Comunitat de Regants (Soci), Gandia - Camí de la mar (Soci), Ayódar (Soci),  Busot - Policia Local (Ajuntament/Soci), Vilafranca - la Pobla del Bellestar (Ajuntament/Soci), la Serratella (Ajuntament/Soci),  Xixona - Cantal del Tormo (Soci),  Castelló de la Plana - Edifici Capitol (Soci),  Algimia de Almonacid (Soci) - - -